Guide — WDE7328 — position and weather

sailwx.info

Track history (hours):
 
Tides and Currents Weather Stations Pressure Air Temp Water Temp Dewpoint Dewpoint Depression Visibility Wind Speed Wind Dir Waves Ship Positions

Guide

Owner: Crowley Marine Services, SEATTLE, WA. More information available from US FCC via Universal Licensing System and Coast Guard Vessel Documentation Center.

Last reported at 2018-Jan-21 11:31 UTC. Time now 2018-Jan-21 12:24 UTC.
Position N 47°28' W 122°23'.

Length 34 m; draft 5.1 m.

Type: Tug. MMSI: 366759530.

Date/timePositionNaut miles runAvg speedWind from/ knotsBaromVisibWave heightAir tempDewpointWater temp
2018-Jan-21 11:31N 47°28' W 122°23'4 7.9
2018-Jan-21 11:00N 47°24' W 122°23'510.1
2018-Jan-21 10:30N 47°29' W 122°26'5 9.9
2018-Jan-21 10:00N 47°34' W 122°26'4 8.6
2018-Jan-21 09:30N 47°36' W 122°21'1 1.2
2018-Jan-21 09:00N 47°35' W 122°21'0 0.1
2018-Jan-21 08:30N 47°35' W 122°21'0 0.0
2018-Jan-21 08:00N 47°35' W 122°21'0 0.1
2018-Jan-21 07:30N 47°35' W 122°21'0 0.1
2018-Jan-21 07:00N 47°35' W 122°21'0 0.0
2018-Jan-21 06:28N 47°35' W 122°21'2 3.8
2018-Jan-21 06:00N 47°36' W 122°23'3 6.9
2018-Jan-21 05:31N 47°33' W 122°25'4 8.6
2018-Jan-21 05:00N 47°29' W 122°24'5 9.0
2018-Jan-21 04:30N 47°25' W 122°22'4 7.4
2018-Jan-21 04:01N 47°21' W 122°23'4 8.0
2018-Jan-21 03:30N 47°18' W 122°27'3 5.4
2018-Jan-21 03:00N 47°15' W 122°26'0 0.0
2018-Jan-21 02:29N 47°15' W 122°26'0 0.0
2018-Jan-21 02:01N 47°15' W 122°26'0 0.0
2018-Jan-21 01:31N 47°15' W 122°26'0 0.0
2018-Jan-21 01:01N 47°15' W 122°26'0 0.0
2018-Jan-21 00:29N 47°15' W 122°26'0 0.0
2018-Jan-21 00:01N 47°15' W 122°26'0 0.0
2018-Jan-20 23:31N 47°15' W 122°26'0 0.0
2018-Jan-20 23:00N 47°15' W 122°26'0 0.0
2018-Jan-20 22:31N 47°15' W 122°26'0 0.0
2018-Jan-20 22:01N 47°15' W 122°26'0 0.0
2018-Jan-20 21:30N 47°15' W 122°26'0 0.0
2018-Jan-20 21:00N 47°15' W 122°26'0 0.0
2018-Jan-20 20:30N 47°15' W 122°26'0 0.0
2018-Jan-20 20:01N 47°15' W 122°26'0 0.0
2018-Jan-20 19:30N 47°15' W 122°26'0 0.0
2018-Jan-20 19:01N 47°15' W 122°26'0 0.0
2018-Jan-20 18:30N 47°15' W 122°26'0 0.0
2018-Jan-20 18:01N 47°15' W 122°26'0 0.0
2018-Jan-20 17:30N 47°15' W 122°26'0 0.0
2018-Jan-20 17:01N 47°15' W 122°26'0 0.0
2018-Jan-20 16:22N 47°15' W 122°26'0 0.0
2018-Jan-20 15:54N 47°15' W 122°26'0 0.0
2018-Jan-20 15:18N 47°15' W 122°26'0 0.0
2018-Jan-20 15:01N 47°15' W 122°26'0 0.0
2018-Jan-20 14:29N 47°15' W 122°26'0 0.0
2018-Jan-20 14:01N 47°15' W 122°26'0 0.0
2018-Jan-20 13:29N 47°15' W 122°26'0 0.0
2018-Jan-20 13:00N 47°15' W 122°26'0 0.4
2018-Jan-20 12:31N 47°15' W 122°26'2 0.6
2018-Jan-20 09:19N 47°17' W 122°24'2 7.3
2018-Jan-20 09:00N 47°18' W 122°27'3 6.2
2018-Jan-20 08:31N 47°21' W 122°26'4 7.0
2018-Jan-20 08:01N 47°23' W 122°22'4 7.7
2018-Jan-20 07:30N 47°27' W 122°25'3 7.0
2018-Jan-20 07:01N 47°30' W 122°26'4 7.5
2018-Jan-20 06:31N 47°34' W 122°27'4 7.1
2018-Jan-20 06:01N 47°36' W 122°23'2 3.0
2018-Jan-20 05:31N 47°35' W 122°21'0 0.0
2018-Jan-20 05:00N 47°35' W 122°21'0 0.0
2018-Jan-20 04:30N 47°35' W 122°21'0 0.0
2018-Jan-20 04:00N 47°35' W 122°21'0 0.0
2018-Jan-20 03:31N 47°35' W 122°21'0 0.0
2018-Jan-20 03:01N 47°35' W 122°21'0 0.0
2018-Jan-20 02:30N 47°35' W 122°21'0 0.0
2018-Jan-20 02:00N 47°35' W 122°21'0 0.6
2018-Jan-20 01:29N 47°35' W 122°21'0 0.1
2018-Jan-20 01:00N 47°35' W 122°21'1 1.9
2018-Jan-20 00:30N 47°36' W 122°21'1 1.4
2018-Jan-20 00:00N 47°37' W 122°22'1 2.5
2018-Jan-19 23:29N 47°35' W 122°21'0 0.0
2018-Jan-19 22:58N 47°35' W 122°21'0 0.0
2018-Jan-19 22:31N 47°35' W 122°21'0 0.0
2018-Jan-19 22:00N 47°35' W 122°21'0 0.0
2018-Jan-19 21:28N 47°35' W 122°21'0 0.0
2018-Jan-19 21:00N 47°35' W 122°21'0 0.0
2018-Jan-19 20:26N 47°35' W 122°21'0 0.0
2018-Jan-19 19:59N 47°35' W 122°21'0 0.0
2018-Jan-19 19:31N 47°35' W 122°21'0 0.0
2018-Jan-19 19:00N 47°35' W 122°21'0 0.0
2018-Jan-19 18:30N 47°35' W 122°21'0 0.0
2018-Jan-19 18:01N 47°35' W 122°21'0 0.0
2018-Jan-19 17:28N 47°35' W 122°21'0 0.0
2018-Jan-19 16:59N 47°35' W 122°21'0 0.0
2018-Jan-19 16:29N 47°35' W 122°21'0 0.0
2018-Jan-19 16:00N 47°35' W 122°21'0 0.0
2018-Jan-19 15:30N 47°35' W 122°21'0 0.0
2018-Jan-19 15:00N 47°35' W 122°21'0 0.0
2018-Jan-19 14:27N 47°35' W 122°21'0 0.0
2018-Jan-19 14:01N 47°35' W 122°21'0 0.0
2018-Jan-19 13:29N 47°35' W 122°21'0 0.0
2018-Jan-19 12:57N 47°35' W 122°21'0 0.8
2018-Jan-19 12:31N 47°36' W 122°21'1 1.6
2018-Jan-19 12:01N 47°35' W 122°21'0 0.0
2018-Jan-19 11:31N 47°35' W 122°21'0 0.3
2018-Jan-19 10:59N 47°35' W 122°21'0 0.0
2018-Jan-19 10:30N 47°35' W 122°21'0 0.0
2018-Jan-19 09:56N 47°35' W 122°21'0 0.0
2018-Jan-19 09:29N 47°35' W 122°21'0 0.0
2018-Jan-19 09:00N 47°35' W 122°21'0 0.0
2018-Jan-19 08:31N 47°35' W 122°21'0 0.0
2018-Jan-19 08:00N 47°35' W 122°21'0 0.0
2018-Jan-19 07:30N 47°35' W 122°21'0 0.0
2018-Jan-19 06:59N 47°35' W 122°21'0 0.0
2018-Jan-19 06:30N 47°35' W 122°21'0 0.0
2018-Jan-19 05:59N 47°35' W 122°21'0 0.0
2018-Jan-19 05:29N 47°35' W 122°21'0 0.0
2018-Jan-19 04:58N 47°35' W 122°21'0 0.0
2018-Jan-19 04:29N 47°35' W 122°21'0 0.0
2018-Jan-19 03:54N 47°35' W 122°21'0 0.0
2018-Jan-19 03:29N 47°35' W 122°21'0 0.9
2018-Jan-19 03:00N 47°35' W 122°21'1 1.2
2018-Jan-19 02:31N 47°35' W 122°22'2 4.1
2018-Jan-19 01:55N 47°33' W 122°20'0 0.5
2018-Jan-19 01:30N 47°33' W 122°20'1 1.8
2018-Jan-19 01:00N 47°34' W 122°21'1 1.4
2018-Jan-19 00:30N 47°35' W 122°22'1 2.1
2018-Jan-19 00:00N 47°36' W 122°22'1 1.8
2018-Jan-18 23:30N 47°36' W 122°23'1 2.7
2018-Jan-18 23:00N 47°35' W 122°21'0 0.0
2018-Jan-18 22:31N 47°35' W 122°21'0 0.0
2018-Jan-18 21:59N 47°35' W 122°21'0 0.0
2018-Jan-18 21:31N 47°35' W 122°21'0 0.8
2018-Jan-18 21:00N 47°35' W 122°21'2 3.3
2018-Jan-18 20:31N 47°37' W 122°21'1 2.5
2018-Jan-18 20:00N 47°35' W 122°21'0 0.0
2018-Jan-18 19:31N 47°35' W 122°21'0 0.0
2018-Jan-18 18:59N 47°35' W 122°21'0 0.0
2018-Jan-18 18:29N 47°35' W 122°21'0 0.0
2018-Jan-18 17:59N 47°35' W 122°21'0 0.0
2018-Jan-18 17:28N 47°35' W 122°21'2 5.3
2018-Jan-18 17:00N 47°35' W 122°25'4 8.9
2018-Jan-18 16:30N 47°31' W 122°25'5 9.3
2018-Jan-18 16:01N 47°27' W 122°23'4 8.2
2018-Jan-18 15:30N 47°23' W 122°22'5 9.1
2018-Jan-18 15:01N 47°19' W 122°26'3 6.0
2018-Jan-18 14:30N 47°16' W 122°25'0 0.1
2018-Jan-18 14:00N 47°16' W 122°25'1 1.3
2018-Jan-18 13:30N 47°17' W 122°26'0 0.4
2018-Jan-18 13:00N 47°17' W 122°25'0 1.0
2018-Jan-18 12:31N 47°16' W 122°25'0 0.0
2018-Jan-18 12:01N 47°16' W 122°25'0 0.0
2018-Jan-18 11:30N 47°16' W 122°25'0 0.2
2018-Jan-18 10:58N 47°16' W 122°25'0 0.1
2018-Jan-18 10:30N 47°16' W 122°25'1 2.3
2018-Jan-18 10:00N 47°15' W 122°26'0 0.0
2018-Jan-18 09:27N 47°15' W 122°26'0 0.0
2018-Jan-18 09:00N 47°15' W 122°26'0 0.0
2018-Jan-18 08:31N 47°15' W 122°26'0 0.0
2018-Jan-18 08:00N 47°15' W 122°26'0 0.0
2018-Jan-18 07:30N 47°15' W 122°26'0 0.0
2018-Jan-18 07:00N 47°15' W 122°26'0 0.0
2018-Jan-18 06:30N 47°15' W 122°26'0 0.0
2018-Jan-18 05:50N 47°15' W 122°26'0 0.0
2018-Jan-18 05:13N 47°15' W 122°26'0 0.0
2018-Jan-18 04:57N 47°15' W 122°26'0 0.0
2018-Jan-18 04:25N 47°15' W 122°26'0 0.0
2018-Jan-18 03:52N 47°15' W 122°26'0 0.0
2018-Jan-18 03:27N 47°15' W 122°26'0 0.0
2018-Jan-18 02:58N 47°15' W 122°26'0 0.0
2018-Jan-18 02:30N 47°15' W 122°26'1 2.4
2018-Jan-18 02:00N 47°16' W 122°25'0 0.3
2018-Jan-18 01:31N 47°16' W 122°25'1 1.8
2018-Jan-18 00:48N 47°16' W 122°24'1 0.8
2018-Jan-18 00:00N 47°15' W 122°23'0 0.0
2018-Jan-17 23:55N 47°15' W 122°23'  
2018-Jan-12 15:00N 47°16' W 122°25'0 0.0
2018-Jan-12 14:30N 47°16' W 122°25'0 0.0
2018-Jan-12 14:00N 47°16' W 122°25'0 0.0
2018-Jan-12 13:30N 47°16' W 122°25'0 0.0
2018-Jan-12 13:00N 47°16' W 122°25'0 0.0
2018-Jan-12 12:30N 47°16' W 122°25'0 0.0
2018-Jan-12 12:00N 47°16' W 122°25'1 1.9
2018-Jan-12 11:25N 47°16' W 122°24'1 0.9
2018-Jan-12 10:32N 47°15' W 122°23'0 0.5
2018-Jan-12 10:28N 47°15' W 122°23'1 2.6
2018-Jan-12 09:56N 47°16' W 122°24'2 4.0
2018-Jan-12 09:30N 47°17' W 122°26'0 0.9
2018-Jan-12 09:00N 47°18' W 122°26'0 0.0
2018-Jan-12 08:30N 47°18' W 122°26'0 0.0
2018-Jan-12 07:59N 47°18' W 122°26'0 0.0
2018-Jan-12 07:30N 47°18' W 122°26'3 5.6
2018-Jan-12 07:00N 47°16' W 122°23'0 0.3
2018-Jan-12 06:17N 47°15' W 122°23'1 3.4
2018-Jan-12 05:59N 47°16' W 122°24'2 3.9
2018-Jan-12 05:30N 47°17' W 122°26'0 0.9
2018-Jan-12 04:59N 47°18' W 122°26'0 0.0
2018-Jan-12 04:30N 47°18' W 122°26'0 0.0
2018-Jan-12 04:00N 47°18' W 122°26'3 5.4
2018-Jan-12 03:30N 47°20' W 122°26'4 8.2
2018-Jan-12 03:00N 47°23' W 122°22'4 8.1
2018-Jan-12 02:30N 47°27' W 122°25'4 8.1
2018-Jan-12 02:00N 47°31' W 122°26'4 7.9
2018-Jan-12 01:30N 47°35' W 122°26'3 6.7
2018-Jan-12 01:00N 47°35' W 122°21'0 0.2
2018-Jan-12 00:30N 47°35' W 122°21'0 0.4
2018-Jan-12 00:00N 47°35' W 122°21'1 2.0
2018-Jan-11 23:30N 47°36' W 122°21'0 0.5
2018-Jan-11 23:00N 47°36' W 122°21'1 2.2
2018-Jan-11 22:30N 47°35' W 122°21'0 0.0
2018-Jan-11 22:00N 47°35' W 122°21'0 0.0
2018-Jan-11 21:30N 47°35' W 122°21'0 0.0
2018-Jan-11 21:00N 47°35' W 122°21'0 0.0
2018-Jan-11 20:30N 47°35' W 122°21'0 0.3
2018-Jan-11 20:00N 47°36' W 122°21'1 1.3
2018-Jan-11 19:30N 47°35' W 122°21'0 0.6
2018-Jan-11 19:00N 47°35' W 122°21'0 0.6
2018-Jan-11 18:30N 47°35' W 122°21'0 0.0
2018-Jan-11 18:00N 47°35' W 122°21'0 0.0
2018-Jan-11 17:30N 47°35' W 122°21'0 0.0
2018-Jan-11 17:00N 47°35' W 122°21'0 0.0
2018-Jan-11 16:30N 47°35' W 122°21'0 0.0
2018-Jan-11 16:00N 47°35' W 122°21'2 4.3
2018-Jan-11 15:30N 47°36' W 122°24'4 8.8
2018-Jan-11 15:00N 47°31' W 122°25'5 9.4
2018-Jan-11 14:31N 47°27' W 122°23'4 8.6
2018-Jan-11 14:00N 47°23' W 122°21'5 9.3
2018-Jan-11 13:30N 47°19' W 122°26'3 4.6
2018-Jan-11 12:45N 47°16' W 122°25'0 1.2
2018-Jan-11 12:30N 47°16' W 122°25'2 2.9
2018-Jan-11 11:59N 47°17' W 122°26'  
Track history (hours):
 
Tides and Currents Weather Stations Pressure Air Temp Water Temp Dewpoint Dewpoint Depression Visibility Wind Speed Wind Dir Waves Ship Positions

Guide

Owner: Crowley Marine Services, SEATTLE, WA. More information available from US FCC via Universal Licensing System and Coast Guard Vessel Documentation Center.

Last reported at 2018-Jan-21 11:31 UTC. Time now 2018-Jan-21 12:24 UTC.
Position N 47°28' W 122°23'.

Length 34 m; draft 5.1 m.

Type: Tug. MMSI: 366759530.

Date/timePositionNaut miles runAvg speedWind from/ knotsBaromVisibWave heightAir tempDewpointWater temp
2018-Jan-21 11:31N 47°28' W 122°23'4 7.9
2018-Jan-21 11:00N 47°24' W 122°23'510.1
2018-Jan-21 10:30N 47°29' W 122°26'5 9.9
2018-Jan-21 10:00N 47°34' W 122°26'4 8.6
2018-Jan-21 09:30N 47°36' W 122°21'1 1.2
2018-Jan-21 09:00N 47°35' W 122°21'0 0.1
2018-Jan-21 08:30N 47°35' W 122°21'0 0.0
2018-Jan-21 08:00N 47°35' W 122°21'0 0.1
2018-Jan-21 07:30N 47°35' W 122°21'0 0.1
2018-Jan-21 07:00N 47°35' W 122°21'0 0.0
2018-Jan-21 06:28N 47°35' W 122°21'2 3.8
2018-Jan-21 06:00N 47°36' W 122°23'3 6.9
2018-Jan-21 05:31N 47°33' W 122°25'4 8.6
2018-Jan-21 05:00N 47°29' W 122°24'5 9.0
2018-Jan-21 04:30N 47°25' W 122°22'4 7.4
2018-Jan-21 04:01N 47°21' W 122°23'4 8.0
2018-Jan-21 03:30N 47°18' W 122°27'3 5.4
2018-Jan-21 03:00N 47°15' W 122°26'0 0.0
2018-Jan-21 02:29N 47°15' W 122°26'0 0.0
2018-Jan-21 02:01N 47°15' W 122°26'0 0.0
2018-Jan-21 01:31N 47°15' W 122°26'0 0.0
2018-Jan-21 01:01N 47°15' W 122°26'0 0.0
2018-Jan-21 00:29N 47°15' W 122°26'0 0.0
2018-Jan-21 00:01N 47°15' W 122°26'0 0.0
2018-Jan-20 23:31N 47°15' W 122°26'0 0.0
2018-Jan-20 23:00N 47°15' W 122°26'0 0.0
2018-Jan-20 22:31N 47°15' W 122°26'0 0.0
2018-Jan-20 22:01N 47°15' W 122°26'0 0.0
2018-Jan-20 21:30N 47°15' W 122°26'0 0.0
2018-Jan-20 21:00N 47°15' W 122°26'0 0.0
2018-Jan-20 20:30N 47°15' W 122°26'0 0.0
2018-Jan-20 20:01N 47°15' W 122°26'0 0.0
2018-Jan-20 19:30N 47°15' W 122°26'0 0.0
2018-Jan-20 19:01N 47°15' W 122°26'0 0.0
2018-Jan-20 18:30N 47°15' W 122°26'0 0.0
2018-Jan-20 18:01N 47°15' W 122°26'0 0.0
2018-Jan-20 17:30N 47°15' W 122°26'0 0.0
2018-Jan-20 17:01N 47°15' W 122°26'0 0.0
2018-Jan-20 16:22N 47°15' W 122°26'0 0.0
2018-Jan-20 15:54N 47°15' W 122°26'0 0.0
2018-Jan-20 15:18N 47°15' W 122°26'0 0.0
2018-Jan-20 15:01N 47°15' W 122°26'0 0.0
2018-Jan-20 14:29N 47°15' W 122°26'0 0.0
2018-Jan-20 14:01N 47°15' W 122°26'0 0.0
2018-Jan-20 13:29N 47°15' W 122°26'0 0.0
2018-Jan-20 13:00N 47°15' W 122°26'0 0.4
2018-Jan-20 12:31N 47°15' W 122°26'2 0.6
2018-Jan-20 09:19N 47°17' W 122°24'2 7.3
2018-Jan-20 09:00N 47°18' W 122°27'3 6.2
2018-Jan-20 08:31N 47°21' W 122°26'4 7.0
2018-Jan-20 08:01N 47°23' W 122°22'4 7.7
2018-Jan-20 07:30N 47°27' W 122°25'3 7.0
2018-Jan-20 07:01N 47°30' W 122°26'4 7.5
2018-Jan-20 06:31N 47°34' W 122°27'4 7.1
2018-Jan-20 06:01N 47°36' W 122°23'2 3.0
2018-Jan-20 05:31N 47°35' W 122°21'0 0.0
2018-Jan-20 05:00N 47°35' W 122°21'0 0.0
2018-Jan-20 04:30N 47°35' W 122°21'0 0.0
2018-Jan-20 04:00N 47°35' W 122°21'0 0.0
2018-Jan-20 03:31N 47°35' W 122°21'0 0.0
2018-Jan-20 03:01N 47°35' W 122°21'0 0.0
2018-Jan-20 02:30N 47°35' W 122°21'0 0.0
2018-Jan-20 02:00N 47°35' W 122°21'0 0.6
2018-Jan-20 01:29N 47°35' W 122°21'0 0.1
2018-Jan-20 01:00N 47°35' W 122°21'1 1.9
2018-Jan-20 00:30N 47°36' W 122°21'1 1.4
2018-Jan-20 00:00N 47°37' W 122°22'1 2.5
2018-Jan-19 23:29N 47°35' W 122°21'0 0.0
2018-Jan-19 22:58N 47°35' W 122°21'0 0.0
2018-Jan-19 22:31N 47°35' W 122°21'0 0.0
2018-Jan-19 22:00N 47°35' W 122°21'0 0.0
2018-Jan-19 21:28N 47°35' W 122°21'0 0.0
2018-Jan-19 21:00N 47°35' W 122°21'0 0.0
2018-Jan-19 20:26N 47°35' W 122°21'0 0.0
2018-Jan-19 19:59N 47°35' W 122°21'0 0.0
2018-Jan-19 19:31N 47°35' W 122°21'0 0.0
2018-Jan-19 19:00N 47°35' W 122°21'0 0.0
2018-Jan-19 18:30N 47°35' W 122°21'0 0.0
2018-Jan-19 18:01N 47°35' W 122°21'0 0.0
2018-Jan-19 17:28N 47°35' W 122°21'0 0.0
2018-Jan-19 16:59N 47°35' W 122°21'0 0.0
2018-Jan-19 16:29N 47°35' W 122°21'0 0.0
2018-Jan-19 16:00N 47°35' W 122°21'0 0.0
2018-Jan-19 15:30N 47°35' W 122°21'0 0.0
2018-Jan-19 15:00N 47°35' W 122°21'0 0.0
2018-Jan-19 14:27N 47°35' W 122°21'0 0.0
2018-Jan-19 14:01N 47°35' W 122°21'0 0.0
2018-Jan-19 13:29N 47°35' W 122°21'0 0.0
2018-Jan-19 12:57N 47°35' W 122°21'0 0.8
2018-Jan-19 12:31N 47°36' W 122°21'1 1.6
2018-Jan-19 12:01N 47°35' W 122°21'0 0.0
2018-Jan-19 11:31N 47°35' W 122°21'0 0.3
2018-Jan-19 10:59N 47°35' W 122°21'0 0.0
2018-Jan-19 10:30N 47°35' W 122°21'0 0.0
2018-Jan-19 09:56N 47°35' W 122°21'0 0.0
2018-Jan-19 09:29N 47°35' W 122°21'0 0.0
2018-Jan-19 09:00N 47°35' W 122°21'0 0.0
2018-Jan-19 08:31N 47°35' W 122°21'0 0.0
2018-Jan-19 08:00N 47°35' W 122°21'0 0.0
2018-Jan-19 07:30N 47°35' W 122°21'0 0.0
2018-Jan-19 06:59N 47°35' W 122°21'0 0.0
2018-Jan-19 06:30N 47°35' W 122°21'0 0.0
2018-Jan-19 05:59N 47°35' W 122°21'0 0.0
2018-Jan-19 05:29N 47°35' W 122°21'0 0.0
2018-Jan-19 04:58N 47°35' W 122°21'0 0.0
2018-Jan-19 04:29N 47°35' W 122°21'0 0.0
2018-Jan-19 03:54N 47°35' W 122°21'0 0.0
2018-Jan-19 03:29N 47°35' W 122°21'0 0.9
2018-Jan-19 03:00N 47°35' W 122°21'1 1.2
2018-Jan-19 02:31N 47°35' W 122°22'2 4.1
2018-Jan-19 01:55N 47°33' W 122°20'0 0.5
2018-Jan-19 01:30N 47°33' W 122°20'1 1.8
2018-Jan-19 01:00N 47°34' W 122°21'1 1.4
2018-Jan-19 00:30N 47°35' W 122°22'1 2.1
2018-Jan-19 00:00N 47°36' W 122°22'1 1.8
2018-Jan-18 23:30N 47°36' W 122°23'1 2.7
2018-Jan-18 23:00N 47°35' W 122°21'0 0.0
2018-Jan-18 22:31N 47°35' W 122°21'0 0.0
2018-Jan-18 21:59N 47°35' W 122°21'0 0.0
2018-Jan-18 21:31N 47°35' W 122°21'0 0.8
2018-Jan-18 21:00N 47°35' W 122°21'2 3.3
2018-Jan-18 20:31N 47°37' W 122°21'1 2.5
2018-Jan-18 20:00N 47°35' W 122°21'0 0.0
2018-Jan-18 19:31N 47°35' W 122°21'0 0.0
2018-Jan-18 18:59N 47°35' W 122°21'0 0.0
2018-Jan-18 18:29N 47°35' W 122°21'0 0.0
2018-Jan-18 17:59N 47°35' W 122°21'0 0.0
2018-Jan-18 17:28N 47°35' W 122°21'2 5.3
2018-Jan-18 17:00N 47°35' W 122°25'4 8.9
2018-Jan-18 16:30N 47°31' W 122°25'5 9.3
2018-Jan-18 16:01N 47°27' W 122°23'4 8.2
2018-Jan-18 15:30N 47°23' W 122°22'5 9.1
2018-Jan-18 15:01N 47°19' W 122°26'3 6.0
2018-Jan-18 14:30N 47°16' W 122°25'0 0.1
2018-Jan-18 14:00N 47°16' W 122°25'1 1.3
2018-Jan-18 13:30N 47°17' W 122°26'0 0.4
2018-Jan-18 13:00N 47°17' W 122°25'0 1.0
2018-Jan-18 12:31N 47°16' W 122°25'0 0.0
2018-Jan-18 12:01N 47°16' W 122°25'0 0.0
2018-Jan-18 11:30N 47°16' W 122°25'0 0.2
2018-Jan-18 10:58N 47°16' W 122°25'0 0.1
2018-Jan-18 10:30N 47°16' W 122°25'1 2.3
2018-Jan-18 10:00N 47°15' W 122°26'0 0.0
2018-Jan-18 09:27N 47°15' W 122°26'0 0.0
2018-Jan-18 09:00N 47°15' W 122°26'0 0.0
2018-Jan-18 08:31N 47°15' W 122°26'0 0.0
2018-Jan-18 08:00N 47°15' W 122°26'0 0.0
2018-Jan-18 07:30N 47°15' W 122°26'0 0.0
2018-Jan-18 07:00N 47°15' W 122°26'0 0.0
2018-Jan-18 06:30N 47°15' W 122°26'0 0.0
2018-Jan-18 05:50N 47°15' W 122°26'0 0.0
2018-Jan-18 05:13N 47°15' W 122°26'0 0.0
2018-Jan-18 04:57N 47°15' W 122°26'0 0.0
2018-Jan-18 04:25N 47°15' W 122°26'0 0.0
2018-Jan-18 03:52N 47°15' W 122°26'0 0.0
2018-Jan-18 03:27N 47°15' W 122°26'0 0.0
2018-Jan-18 02:58N 47°15' W 122°26'0 0.0
2018-Jan-18 02:30N 47°15' W 122°26'1 2.4
2018-Jan-18 02:00N 47°16' W 122°25'0 0.3
2018-Jan-18 01:31N 47°16' W 122°25'1 1.8
2018-Jan-18 00:48N 47°16' W 122°24'1 0.8
2018-Jan-18 00:00N 47°15' W 122°23'0 0.0
2018-Jan-17 23:55N 47°15' W 122°23'  
2018-Jan-12 15:00N 47°16' W 122°25'0 0.0
2018-Jan-12 14:30N 47°16' W 122°25'0 0.0
2018-Jan-12 14:00N 47°16' W 122°25'0 0.0
2018-Jan-12 13:30N 47°16' W 122°25'0 0.0
2018-Jan-12 13:00N 47°16' W 122°25'0 0.0
2018-Jan-12 12:30N 47°16' W 122°25'0 0.0
2018-Jan-12 12:00N 47°16' W 122°25'1 1.9
2018-Jan-12 11:25N 47°16' W 122°24'1 0.9
2018-Jan-12 10:32N 47°15' W 122°23'0 0.5
2018-Jan-12 10:28N 47°15' W 122°23'1 2.6
2018-Jan-12 09:56N 47°16' W 122°24'2 4.0
2018-Jan-12 09:30N 47°17' W 122°26'0 0.9
2018-Jan-12 09:00N 47°18' W 122°26'0 0.0
2018-Jan-12 08:30N 47°18' W 122°26'0 0.0
2018-Jan-12 07:59N 47°18' W 122°26'0 0.0
2018-Jan-12 07:30N 47°18' W 122°26'3 5.6
2018-Jan-12 07:00N 47°16' W 122°23'0 0.3
2018-Jan-12 06:17N 47°15' W 122°23'1 3.4
2018-Jan-12 05:59N 47°16' W 122°24'2 3.9
2018-Jan-12 05:30N 47°17' W 122°26'0 0.9
2018-Jan-12 04:59N 47°18' W 122°26'0 0.0
2018-Jan-12 04:30N 47°18' W 122°26'0 0.0
2018-Jan-12 04:00N 47°18' W 122°26'3 5.4
2018-Jan-12 03:30N 47°20' W 122°26'4 8.2
2018-Jan-12 03:00N 47°23' W 122°22'4 8.1
2018-Jan-12 02:30N 47°27' W 122°25'4 8.1
2018-Jan-12 02:00N 47°31' W 122°26'4 7.9
2018-Jan-12 01:30N 47°35' W 122°26'3 6.7
2018-Jan-12 01:00N 47°35' W 122°21'0 0.2
2018-Jan-12 00:30N 47°35' W 122°21'0 0.4
2018-Jan-12 00:00N 47°35' W 122°21'1 2.0
2018-Jan-11 23:30N 47°36' W 122°21'0 0.5
2018-Jan-11 23:00N 47°36' W 122°21'1 2.2
2018-Jan-11 22:30N 47°35' W 122°21'0 0.0
2018-Jan-11 22:00N 47°35' W 122°21'0 0.0
2018-Jan-11 21:30N 47°35' W 122°21'0 0.0
2018-Jan-11 21:00N 47°35' W 122°21'0 0.0
2018-Jan-11 20:30N 47°35' W 122°21'0 0.3
2018-Jan-11 20:00N 47°36' W 122°21'1 1.3
2018-Jan-11 19:30N 47°35' W 122°21'0 0.6
2018-Jan-11 19:00N 47°35' W 122°21'0 0.6
2018-Jan-11 18:30N 47°35' W 122°21'0 0.0
2018-Jan-11 18:00N 47°35' W 122°21'0 0.0
2018-Jan-11 17:30N 47°35' W 122°21'0 0.0
2018-Jan-11 17:00N 47°35' W 122°21'0 0.0
2018-Jan-11 16:30N 47°35' W 122°21'0 0.0
2018-Jan-11 16:00N 47°35' W 122°21'2 4.3
2018-Jan-11 15:30N 47°36' W 122°24'4 8.8
2018-Jan-11 15:00N 47°31' W 122°25'5 9.4
2018-Jan-11 14:31N 47°27' W 122°23'4 8.6
2018-Jan-11 14:00N 47°23' W 122°21'5 9.3
2018-Jan-11 13:30N 47°19' W 122°26'3 4.6
2018-Jan-11 12:45N 47°16' W 122°25'0 1.2
2018-Jan-11 12:30N 47°16' W 122°25'2 2.9
2018-Jan-11 11:59N 47°17' W 122°26'  

Dump ship's entire track history